Time;durP1;ratioP1;P1;durP2;ratioP2;P2;SDS_P1;SDS_P2;PMS_P1;PMS_P2;Temp;Humidity;BMP_temperature;BMP_pressure;BME280_temperature;BME280_humidity;BME280_pressure;Samples;Min_cycle;Max_cycle;Signal;HPM_P1;HPM_P2
2023/04/24 00:01:45;;;;;;;6.20;1.15;;;19.00;53.80;;;;;;5011083;28;20724;-55
2023/04/24 00:04:16;;;;;;;2.42;1.00;;;19.10;53.70;;;;;;4993282;28;20197;-53
2023/04/24 00:06:49;;;;;;;1.38;0.80;;;19.10;53.60;;;;;;4993732;28;20214;-55
2023/04/24 00:09:19;;;;;;;2.70;0.80;;;19.10;53.50;;;;;;4993573;28;20280;-50
2023/04/24 00:11:52;;;;;;;2.80;1.10;;;19.10;53.30;;;;;;4993813;28;20201;-55
2023/04/24 00:14:23;;;;;;;2.15;1.00;;;19.10;53.00;;;;;;4993702;28;20208;-52
2023/04/24 00:16:53;;;;;;;1.50;0.98;;;19.10;52.90;;;;;;4993904;28;20224;-52
2023/04/24 00:19:24;;;;;;;2.28;1.02;;;19.20;52.90;;;;;;4993735;28;20225;-52
2023/04/24 00:21:55;;;;;;;1.40;0.95;;;19.20;52.80;;;;;;4996143;28;20197;-54
2023/04/24 00:24:25;;;;;;;2.22;1.10;;;19.20;52.70;;;;;;4993702;28;20201;-54
2023/04/24 00:26:58;;;;;;;1.70;1.02;;;19.20;52.80;;;;;;4993596;28;20701;-54
2023/04/24 00:29:29;;;;;;;2.38;1.10;;;19.20;52.80;;;;;;4993927;28;20725;-55
2023/04/24 00:31:59;;;;;;;2.47;0.98;;;19.20;52.90;;;;;;4993963;28;20246;-55
2023/04/24 00:34:32;;;;;;;2.55;1.02;;;19.20;52.80;;;;;;4994438;28;20202;-55
2023/04/24 00:37:02;;;;;;;2.08;1.00;;;19.20;52.70;;;;;;4993866;28;20217;-52
2023/04/24 00:39:33;;;;;;;2.33;1.27;;;19.30;52.80;;;;;;4993625;28;20232;-54
2023/04/24 00:42:06;;;;;;;2.20;1.08;;;19.30;52.80;;;;;;4993768;28;20276;-55
2023/04/24 00:44:37;;;;;;;1.60;0.90;;;19.30;52.90;;;;;;4993351;28;20288;-57
2023/04/24 00:47:08;;;;;;;1.63;0.90;;;19.30;52.80;;;;;;4993111;28;20693;-54
2023/04/24 00:49:38;;;;;;;2.42;0.88;;;19.30;52.80;;;;;;4991170;28;20204;-55
2023/04/24 00:52:09;;;;;;;1.67;0.85;;;19.30;52.80;;;;;;4992776;28;20198;-53
2023/04/24 00:54:40;;;;;;;1.95;1.02;;;19.40;52.70;;;;;;4993065;28;20317;-52
2023/04/24 00:57:13;;;;;;;1.17;0.80;;;19.40;53.30;;;;;;4993537;28;20221;-53
2023/04/24 00:59:43;;;;;;;1.30;0.80;;;19.40;52.70;;;;;;4995718;28;20219;-54
2023/04/24 01:02:15;;;;;;;1.60;0.80;;;19.40;52.60;;;;;;4994729;28;20208;-57
2023/04/24 01:04:46;;;;;;;1.80;0.70;;;19.40;52.60;;;;;;4993027;28;20233;-53
2023/04/24 01:07:17;;;;;;;1.88;0.77;;;19.40;52.60;;;;;;4993105;28;20217;-57
2023/04/24 01:09:50;;;;;;;1.67;0.90;;;19.40;52.50;;;;;;4992792;28;20198;-55
2023/04/24 01:12:23;;;;;;;2.13;1.10;;;19.50;52.60;;;;;;4992341;28;20197;-50
2023/04/24 01:14:54;;;;;;;3.05;1.00;;;19.50;52.50;;;;;;4991763;28;20213;-52
2023/04/24 01:17:25;;;;;;;2.53;1.17;;;19.50;52.50;;;;;;4993040;28;20697;-55
2023/04/24 01:19:56;;;;;;;1.65;0.80;;;19.50;52.40;;;;;;4993029;28;20225;-53
2023/04/24 01:22:29;;;;;;;2.15;0.95;;;19.50;52.40;;;;;;4992991;28;20647;-52
2023/04/24 01:24:59;;;;;;;1.15;0.70;;;19.50;52.40;;;;;;4992339;28;20569;-55
2023/04/24 01:27:32;;;;;;;3.83;0.88;;;19.60;53.00;;;;;;4992225;28;20218;-53
2023/04/24 01:30:03;;;;;;;1.88;0.98;;;19.50;52.40;;;;;;4992665;28;20288;-53
2023/04/24 01:32:34;;;;;;;3.28;1.00;;;19.60;52.40;;;;;;4992332;28;20205;-50
2023/04/24 01:35:05;;;;;;;1.45;0.77;;;19.60;52.30;;;;;;4992617;28;20616;-52
2023/04/24 01:37:38;;;;;;;1.50;0.68;;;19.60;52.90;;;;;;4992189;28;20225;-55
2023/04/24 01:40:10;;;;;;;1.95;0.85;;;19.60;52.30;;;;;;4992138;28;20312;-56
2023/04/24 01:42:43;;;;;;;1.48;1.02;;;19.60;52.30;;;;;;4985122;28;20612;-51
2023/04/24 01:45:15;;;;;;;2.22;0.90;;;19.60;52.20;;;;;;4972867;28;20220;-52
2023/04/24 01:47:46;;;;;;;2.30;0.90;;;19.70;52.40;;;;;;4972760;28;20230;-53
2023/04/24 01:50:17;;;;;;;2.03;0.60;;;19.70;52.20;;;;;;4972696;28;20198;-50
2023/04/24 01:52:49;;;;;;;2.58;1.00;;;19.70;52.10;;;;;;4972613;28;20221;-51
2023/04/24 01:55:20;;;;;;;1.92;0.95;;;19.70;52.10;;;;;;4986848;28;20201;-57
2023/04/24 01:57:51;;;;;;;3.65;1.02;;;19.70;52.10;;;;;;5011818;28;20220;-53
2023/04/24 02:00:22;;;;;;;3.67;1.00;;;19.70;52.00;;;;;;5012237;28;20230;-51
2023/04/24 02:02:52;;;;;;;1.55;0.77;;;19.80;52.00;;;;;;5000499;28;20209;-54
2023/04/24 02:05:23;;;;;;;1.98;1.05;;;19.80;52.10;;;;;;4992051;28;20231;-55
2023/04/24 02:07:55;;;;;;;1.45;0.90;;;19.80;52.10;;;;;;4991690;28;20706;-53
2023/04/24 02:10:27;;;;;;;1.48;0.95;;;19.80;52.10;;;;;;4991885;28;20209;-55
2023/04/24 02:12:59;;;;;;;3.42;0.90;;;19.80;52.10;;;;;;4991652;28;20281;-55
2023/04/24 02:15:30;;;;;;;1.48;0.77;;;19.80;52.20;;;;;;4991774;28;20205;-54
2023/04/24 02:18:01;;;;;;;1.38;0.80;;;19.80;52.20;;;;;;4993868;28;20281;-51
2023/04/24 02:20:33;;;;;;;2.00;0.77;;;19.90;52.40;;;;;;4991752;28;20229;-50
2023/04/24 02:23:06;;;;;;;1.15;0.70;;;19.90;52.40;;;;;;4992103;28;20236;-52
2023/04/24 02:25:37;;;;;;;2.30;0.80;;;19.90;52.30;;;;;;4991057;28;20198;-54
2023/04/24 02:28:08;;;;;;;3.65;0.70;;;19.90;52.30;;;;;;4991957;28;20225;-57
2023/04/24 02:30:39;;;;;;;1.15;0.70;;;20.00;52.40;;;;;;4991929;28;20201;-51
2023/04/24 02:33:09;;;;;;;1.38;0.73;;;20.00;52.50;;;;;;4991901;28;20212;-56
2023/04/24 02:35:40;;;;;;;1.52;0.80;;;20.00;52.50;;;;;;4992402;28;20284;-51
2023/04/24 02:38:12;;;;;;;2.78;0.73;;;20.00;52.50;;;;;;4991175;28;20694;-51
2023/04/24 02:40:43;;;;;;;2.00;0.93;;;20.00;52.50;;;;;;4990961;28;20364;-52
2023/04/24 02:43:14;;;;;;;1.48;0.80;;;20.10;52.60;;;;;;4980822;28;20202;-51
2023/04/24 02:45:44;;;;;;;2.70;0.85;;;20.10;52.60;;;;;;4972078;28;20678;-49
2023/04/24 02:48:15;;;;;;;1.45;0.60;;;20.10;52.60;;;;;;4972094;28;20225;-51
2023/04/24 02:50:45;;;;;;;2.85;1.08;;;20.10;52.50;;;;;;4971887;28;20206;-53
2023/04/24 02:53:18;;;;;;;2.20;0.90;;;20.10;52.50;;;;;;4981647;28;20206;-53
2023/04/24 02:55:49;;;;;;;1.17;0.75;;;20.10;52.50;;;;;;4990928;28;20194;-51
2023/04/24 02:58:20;;;;;;;1.73;0.95;;;20.20;52.60;;;;;;4991384;28;20200;-55
2023/04/24 03:00:51;;;;;;;2.15;0.90;;;20.20;52.50;;;;;;4991817;28;20312;-56
2023/04/24 03:03:22;;;;;;;1.40;0.77;;;20.20;52.50;;;;;;4991234;28;20708;-56
2023/04/24 03:05:52;;;;;;;1.88;0.55;;;20.20;52.50;;;;;;4991564;28;20689;-52
2023/04/24 03:08:25;;;;;;;0.82;0.60;;;20.30;52.50;;;;;;5000812;28;20212;-56
2023/04/24 03:10:56;;;;;;;1.88;0.55;;;20.30;52.50;;;;;;5010974;28;20212;-49
2023/04/24 03:13:26;;;;;;;1.48;0.80;;;20.30;52.40;;;;;;5010862;28;20233;-57
2023/04/24 03:15:57;;;;;;;1.75;0.90;;;20.40;52.40;;;;;;5010879;28;20200;-53
2023/04/24 03:18:27;;;;;;;1.63;0.90;;;20.40;52.30;;;;;;5010915;28;20200;-54
2023/04/24 03:20:58;;;;;;;2.63;0.90;;;20.40;52.20;;;;;;5010668;28;20228;-50
2023/04/24 03:23:31;;;;;;;1.15;0.80;;;20.40;52.20;;;;;;5010862;28;20197;-52
2023/04/24 03:26:02;;;;;;;1.95;0.80;;;20.50;52.20;;;;;;5010570;28;20200;-56
2023/04/24 03:28:32;;;;;;;1.80;0.63;;;20.40;52.20;;;;;;5010209;28;20231;-56
2023/04/24 03:31:03;;;;;;;1.88;0.80;;;20.40;52.10;;;;;;5010534;28;20565;-57
2023/04/24 03:33:38;;;;;;;1.38;0.82;;;20.50;52.20;;;;;;4993124;28;20212;-53
2023/04/24 03:36:09;;;;;;;1.52;0.70;;;20.50;52.20;;;;;;4990450;28;20197;-57
2023/04/24 03:38:41;;;;;;;2.20;0.77;;;20.50;52.20;;;;;;4993706;28;20208;-53
2023/04/24 03:41:12;;;;;;;1.45;0.65;;;20.60;52.20;;;;;;4994376;28;20221;-52
2023/04/24 03:43:42;;;;;;;1.55;0.70;;;20.60;52.10;;;;;;4990874;28;20590;-51
2023/04/24 03:46:13;;;;;;;1.10;0.75;;;20.60;52.10;;;;;;4994253;28;20729;-53
2023/04/24 03:48:44;;;;;;;1.88;0.88;;;20.60;52.10;;;;;;4994260;28;20602;-55
2023/04/24 03:51:15;;;;;;;1.20;0.82;;;20.70;52.10;;;;;;4974779;28;20615;-53
2023/04/24 03:53:47;;;;;;;2.08;0.80;;;20.70;52.00;;;;;;4974360;28;20206;-55
2023/04/24 03:56:18;;;;;;;2.97;0.90;;;20.70;52.00;;;;;;4974438;28;20766;-53
2023/04/24 03:58:48;;;;;;;1.63;0.70;;;20.80;51.90;;;;;;4974337;28;20566;-53
2023/04/24 04:01:20;;;;;;;1.50;0.88;;;20.80;51.90;;;;;;4974256;28;20226;-52
2023/04/24 04:03:51;;;;;;;1.15;0.80;;;20.80;51.90;;;;;;4992880;28;20210;-56
2023/04/24 04:06:21;;;;;;;1.20;0.80;;;20.80;51.90;;;;;;4993615;28;20280;-54
2023/04/24 04:08:54;;;;;;;2.65;1.00;;;20.90;51.90;;;;;;4993789;28;20292;-57
2023/04/24 04:11:24;;;;;;;1.23;0.68;;;20.90;51.90;;;;;;4996255;28;20202;-56
2023/04/24 04:13:55;;;;;;;2.13;1.10;;;20.80;51.80;;;;;;4994002;28;20201;-51
2023/04/24 04:16:26;;;;;;;1.08;0.60;;;20.90;51.90;;;;;;4994058;28;20229;-54
2023/04/24 04:18:57;;;;;;;0.77;0.65;;;20.90;51.90;;;;;;4993732;28;20725;-54
2023/04/24 04:21:28;;;;;;;1.65;0.77;;;20.90;51.90;;;;;;4993616;28;20312;-57
2023/04/24 04:24:00;;;;;;;1.85;0.80;;;20.90;51.80;;;;;;4993842;28;20285;-57
2023/04/24 04:26:32;;;;;;;1.80;0.75;;;21.00;51.80;;;;;;4993608;28;20910;-53
2023/04/24 04:29:03;;;;;;;1.25;0.80;;;21.00;51.70;;;;;;4991220;28;20276;-57
2023/04/24 04:31:34;;;;;;;1.85;0.73;;;21.00;51.80;;;;;;5001196;28;20197;-58
2023/04/24 04:34:04;;;;;;;1.65;0.93;;;21.00;51.80;;;;;;4992868;28;20666;-51
2023/04/24 04:36:36;;;;;;;1.90;0.70;;;21.00;51.80;;;;;;4991872;28;20713;-58
2023/04/24 04:39:09;;;;;;;2.30;0.98;;;21.10;51.80;;;;;;4990934;28;20201;-58
2023/04/24 04:41:40;;;;;;;2.03;0.80;;;21.10;51.80;;;;;;4992641;28;20224;-58
2023/04/24 04:44:10;;;;;;;1.90;1.00;;;21.10;51.80;;;;;;4992336;28;20702;-58
2023/04/24 04:46:41;;;;;;;2.38;0.88;;;21.10;51.80;;;;;;4991862;28;20221;-58
2023/04/24 04:49:12;;;;;;;1.85;1.00;;;21.10;51.80;;;;;;4992035;28;20201;-58
2023/04/24 04:51:42;;;;;;;2.03;0.98;;;21.10;51.80;;;;;;4992293;28;20225;-54
2023/04/24 04:54:15;;;;;;;2.25;0.68;;;21.20;51.90;;;;;;4993008;28;20666;-56
2023/04/24 04:56:46;;;;;;;1.85;0.60;;;21.20;51.90;;;;;;4992310;28;20217;-57
2023/04/24 04:59:16;;;;;;;2.00;0.80;;;21.20;51.90;;;;;;4992527;28;20197;-58
2023/04/24 05:01:47;;;;;;;1.77;1.05;;;21.20;51.90;;;;;;4992349;28;20247;-58
2023/04/24 05:04:18;;;;;;;1.25;0.93;;;21.20;51.90;;;;;;4994787;28;20197;-57
2023/04/24 05:06:50;;;;;;;1.65;0.75;;;21.20;51.90;;;;;;4991887;28;20221;-58
2023/04/24 05:09:23;;;;;;;1.85;0.95;;;21.20;51.90;;;;;;4991914;28;20194;-58
2023/04/24 05:11:54;;;;;;;1.60;0.90;;;21.20;51.90;;;;;;4992642;28;20654;-57
2023/04/24 05:14:24;;;;;;;1.30;0.80;;;21.20;51.90;;;;;;4991687;28;20229;-58
2023/04/24 05:16:55;;;;;;;2.38;1.00;;;21.20;51.90;;;;;;4992542;28;20265;-55
2023/04/24 05:19:26;;;;;;;1.55;0.80;;;21.20;51.90;;;;;;5011236;28;20196;-58
2023/04/24 05:21:56;;;;;;;2.10;0.73;;;21.20;52.00;;;;;;5007496;28;20217;-57
2023/04/24 05:24:29;;;;;;;1.77;0.82;;;21.20;51.90;;;;;;4990779;28;20201;-53
2023/04/24 05:27:00;;;;;;;1.38;0.70;;;21.20;52.00;;;;;;4991610;28;20216;-54
2023/04/24 05:29:31;;;;;;;2.67;0.98;;;21.20;51.90;;;;;;4991550;28;20300;-50
2023/04/24 05:32:02;;;;;;;1.65;0.90;;;21.20;51.90;;;;;;4992106;28;20207;-57
2023/04/24 05:34:32;;;;;;;1.23;0.80;;;21.20;51.90;;;;;;4979171;28;20194;-55
2023/04/24 05:37:03;;;;;;;1.42;0.73;;;21.20;51.90;;;;;;4976430;28;20209;-58
2023/04/24 05:39:36;;;;;;;1.65;1.00;;;21.20;51.80;;;;;;4992356;28;20202;-57
2023/04/24 05:42:07;;;;;;;2.28;0.80;;;21.20;51.90;;;;;;5001621;28;20301;-58
2023/04/24 05:44:37;;;;;;;1.27;0.80;;;21.20;51.90;;;;;;5001614;28;20189;-52
2023/04/24 05:47:08;;;;;;;1.52;0.73;;;21.20;51.90;;;;;;5007032;28;20209;-57
2023/04/24 05:49:38;;;;;;;1.05;0.80;;;21.20;51.90;;;;;;4990971;28;20205;-57
2023/04/24 05:52:09;;;;;;;2.40;1.08;;;21.10;51.90;;;;;;4991681;28;20656;-57
2023/04/24 05:54:42;;;;;;;2.92;1.02;;;21.10;52.00;;;;;;4991092;28;20248;-54
2023/04/24 05:57:12;;;;;;;1.95;1.00;;;21.10;52.00;;;;;;4991184;28;20213;-58
2023/04/24 05:59:43;;;;;;;1.20;0.77;;;21.10;52.00;;;;;;4989296;28;20205;-54
2023/04/24 06:02:14;;;;;;;2.33;1.10;;;21.10;51.90;;;;;;4990928;28;20225;-55
2023/04/24 06:04:44;;;;;;;1.88;0.80;;;21.10;51.90;;;;;;4991302;28;20202;-57
2023/04/24 06:07:15;;;;;;;3.13;1.23;;;21.10;51.80;;;;;;4991642;28;20214;-53
2023/04/24 06:09:47;;;;;;;2.42;0.80;;;21.00;51.80;;;;;;4990993;28;20676;-58
2023/04/24 06:12:18;;;;;;;1.10;0.80;;;21.00;51.80;;;;;;4993908;28;20602;-55
2023/04/24 06:14:49;;;;;;;1.60;0.98;;;21.00;51.80;;;;;;4991441;28;20201;-55
2023/04/24 06:17:19;;;;;;;1.17;0.93;;;21.00;51.70;;;;;;4991211;28;20241;-53
2023/04/24 06:19:50;;;;;;;2.10;1.00;;;21.00;51.70;;;;;;4990366;28;20197;-56
2023/04/24 06:22:21;;;;;;;2.38;1.30;;;20.90;51.60;;;;;;4990281;28;20228;-55
2023/04/24 06:24:53;;;;;;;2.55;0.93;;;20.90;51.60;;;;;;4991777;28;20196;-51
2023/04/24 06:27:24;;;;;;;2.63;1.15;;;20.90;51.70;;;;;;4990819;28;20225;-52
2023/04/24 06:29:56;;;;;;;2.05;1.13;;;20.90;51.70;;;;;;4990098;28;20204;-56
2023/04/24 06:32:27;;;;;;;1.83;1.10;;;20.90;51.70;;;;;;4991330;28;20225;-58
2023/04/24 06:34:57;;;;;;;1.35;1.00;;;20.80;51.70;;;;;;4992150;28;20213;-59
2023/04/24 06:37:28;;;;;;;1.75;0.90;;;20.80;51.70;;;;;;4989061;28;20210;-58
2023/04/24 06:40:00;;;;;;;2.17;1.30;;;20.90;51.80;;;;;;4991257;28;20209;-57
2023/04/24 06:42:31;;;;;;;2.28;1.20;;;20.80;51.70;;;;;;4990981;28;20224;-52
2023/04/24 06:45:02;;;;;;;1.60;1.08;;;20.80;51.70;;;;;;4990933;28;20193;-56
2023/04/24 06:47:32;;;;;;;1.83;1.13;;;20.80;51.60;;;;;;4990807;28;20236;-57
2023/04/24 06:50:03;;;;;;;1.30;0.82;;;20.80;51.50;;;;;;4988269;28;20890;-55
2023/04/24 06:52:35;;;;;;;2.17;1.10;;;20.70;51.50;;;;;;4975996;28;20200;-57
2023/04/24 06:55:08;;;;;;;1.98;1.10;;;20.70;51.50;;;;;;4991331;28;20610;-58
2023/04/24 06:57:38;;;;;;;1.02;0.85;;;20.70;51.50;;;;;;4991004;28;20217;-58
2023/04/24 07:00:10;;;;;;;1.85;1.13;;;20.70;51.50;;;;;;5006949;28;20193;-56
2023/04/24 07:02:41;;;;;;;3.17;1.50;;;20.60;51.50;;;;;;5000749;28;20305;-54
2023/04/24 07:05:12;;;;;;;3.10;1.67;;;20.60;51.60;;;;;;4990369;28;20197;-56
2023/04/24 07:07:43;;;;;;;2.08;1.48;;;20.60;51.50;;;;;;4990721;28;20626;-56
2023/04/24 07:10:15;;;;;;;2.92;1.67;;;20.50;51.50;;;;;;5000476;28;20189;-55
2023/04/24 07:12:46;;;;;;;3.30;1.70;;;20.50;51.60;;;;;;5007247;28;20198;-58
2023/04/24 07:15:17;;;;;;;2.30;1.55;;;20.50;51.60;;;;;;4995387;28;20202;-57
2023/04/24 07:17:47;;;;;;;1.70;1.42;;;20.50;51.60;;;;;;4993712;28;20210;-56
2023/04/24 07:20:18;;;;;;;2.05;1.50;;;20.50;51.60;;;;;;4994534;28;20205;-55
2023/04/24 07:22:49;;;;;;;2.97;1.67;;;20.50;51.60;;;;;;4994309;28;20220;-52
2023/04/24 07:25:22;;;;;;;2.47;1.50;;;20.50;51.60;;;;;;4994363;28;20194;-54
2023/04/24 07:27:52;;;;;;;2.25;1.55;;;20.50;51.50;;;;;;4991882;28;20221;-55
2023/04/24 07:30:23;;;;;;;3.17;1.70;;;20.40;51.50;;;;;;4976517;28;20202;-54
2023/04/24 07:32:54;;;;;;;5.00;1.63;;;20.40;51.50;;;;;;4986628;28;20204;-58
2023/04/24 07:35:25;;;;;;;2.15;1.65;;;20.40;51.50;;;;;;4994887;28;20201;-53
2023/04/24 07:37:56;;;;;;;1.90;1.40;;;20.30;51.50;;;;;;4994995;28;20257;-56
2023/04/24 07:40:29;;;;;;;4.03;1.88;;;20.30;51.50;;;;;;4994189;28;20217;-55
2023/04/24 07:42:59;;;;;;;2.75;1.50;;;20.30;51.50;;;;;;4994384;28;20706;-55
2023/04/24 07:45:31;;;;;;;3.42;1.88;;;20.30;51.50;;;;;;4995740;28;20197;-54
2023/04/24 07:48:01;;;;;;;2.80;1.60;;;20.20;51.50;;;;;;5013782;28;20212;-58
2023/04/24 07:50:32;;;;;;;4.32;1.77;;;20.20;51.50;;;;;;5013729;28;20197;-58
2023/04/24 07:53:02;;;;;;;2.15;1.58;;;20.20;51.50;;;;;;5013013;28;20251;-54
2023/04/24 07:55:35;;;;;;;2.08;1.50;;;20.20;51.50;;;;;;5012632;28;20685;-58
2023/04/24 07:58:06;;;;;;;2.25;1.60;;;20.20;51.50;;;;;;5013008;28;20697;-58
2023/04/24 08:00:37;;;;;;;2.28;1.80;;;20.10;51.40;;;;;;5013337;28;20204;-57
2023/04/24 08:03:07;;;;;;;1.60;1.35;;;20.10;51.40;;;;;;5000295;28;20209;-54
2023/04/24 08:05:38;;;;;;;3.15;1.90;;;20.10;51.40;;;;;;4994089;28;20634;-55
2023/04/24 08:08:08;;;;;;;2.45;1.63;;;20.10;52.10;;;;;;4994010;28;20728;-54
2023/04/24 08:10:41;;;;;;;2.67;1.67;;;20.10;51.50;;;;;;4993342;28;20572;-52
2023/04/24 08:13:12;;;;;;;3.40;1.95;;;20.00;51.40;;;;;;4994125;28;20729;-58
2023/04/24 08:15:43;;;;;;;2.85;1.88;;;20.00;51.40;;;;;;4996334;28;20274;-52
2023/04/24 08:18:15;;;;;;;3.80;2.15;;;20.00;51.40;;;;;;4994124;28;20229;-58
2023/04/24 08:20:46;;;;;;;3.45;1.80;;;19.90;51.40;;;;;;4994151;28;20201;-55
2023/04/24 08:23:16;;;;;;;3.05;1.88;;;19.90;51.40;;;;;;4992755;28;20216;-55
2023/04/24 08:25:49;;;;;;;2.38;1.90;;;19.90;51.50;;;;;;4993134;28;20205;-54
2023/04/24 08:28:20;;;;;;;2.22;1.67;;;19.90;51.50;;;;;;4993797;28;20193;-57
2023/04/24 08:30:54;;;;;;;2.90;1.73;;;19.90;51.50;;;;;;4993453;28;20217;-58
2023/04/24 08:33:24;;;;;;;2.53;1.70;;;19.80;51.50;;;;;;4993409;28;20206;-56
2023/04/24 08:35:56;;;;;;;2.40;1.80;;;19.80;51.50;;;;;;4989691;28;20240;-54
2023/04/24 08:38:27;;;;;;;2.95;1.88;;;19.80;51.40;;;;;;4974502;28;20601;-55
2023/04/24 08:41:01;;;;;;;3.58;2.38;;;19.80;51.50;;;;;;4987984;28;20206;-58
2023/04/24 08:43:32;;;;;;;4.40;1.98;;;19.80;51.50;;;;;;4992440;28;20200;-57
2023/04/24 08:46:03;;;;;;;3.08;1.88;;;19.80;51.50;;;;;;4992157;28;20685;-56
2023/04/24 08:48:34;;;;;;;2.78;2.25;;;19.70;51.40;;;;;;4992768;28;20202;-57
2023/04/24 08:51:08;;;;;;;3.42;1.88;;;19.70;51.40;;;;;;4993216;28;20204;-57
2023/04/24 08:53:39;;;;;;;3.03;1.92;;;19.70;51.40;;;;;;4993044;28;20204;-52
2023/04/24 08:56:11;;;;;;;4.15;2.30;;;19.70;51.40;;;;;;4992955;28;20857;-56
2023/04/24 08:58:43;;;;;;;3.35;1.80;;;19.60;51.40;;;;;;4993291;28;20201;-58
2023/04/24 09:01:14;;;;;;;2.72;1.98;;;19.60;51.40;;;;;;5002532;28;20565;-55
2023/04/24 09:03:45;;;;;;;2.88;1.90;;;19.60;51.40;;;;;;4996504;28;20193;-56
2023/04/24 09:06:15;;;;;;;2.72;1.80;;;19.60;51.50;;;;;;4992596;28;20217;-53
2023/04/24 09:08:48;;;;;;;3.83;2.00;;;19.60;51.50;;;;;;4993011;28;20204;-53
2023/04/24 09:11:21;;;;;;;3.38;2.38;;;19.50;51.50;;;;;;4992721;28;20567;-55
2023/04/24 09:13:52;;;;;;;2.28;1.67;;;19.50;51.50;;;;;;4993279;28;20205;-56
2023/04/24 09:16:24;;;;;;;3.15;2.00;;;19.50;51.50;;;;;;4993098;28;20764;-58
2023/04/24 09:18:54;;;;;;;4.90;2.20;;;19.50;51.50;;;;;;4993163;28;20206;-58
2023/04/24 09:21:25;;;;;;;3.00;1.85;;;19.50;51.50;;;;;;4992733;28;20225;-57
2023/04/24 09:24:03;;;;;;;2.70;1.70;;;19.40;51.40;;;;;;4992306;28;20711;-57
2023/04/24 09:26:38;;;;;;;2.80;1.95;;;19.40;51.40;;;;;;4992004;28;20236;-54
2023/04/24 09:29:08;;;;;;;3.58;1.98;;;19.40;51.40;;;;;;4976105;28;20606;-57
2023/04/24 09:31:39;;;;;;;2.95;1.75;;;19.40;51.50;;;;;;4974516;28;20205;-57
2023/04/24 09:34:10;;;;;;;5.22;2.38;;;19.30;51.50;;;;;;4991891;28;20198;-55
2023/04/24 09:36:41;;;;;;;3.30;2.00;;;19.30;51.50;;;;;;4991641;28;20312;-57
2023/04/24 09:39:13;;;;;;;3.28;2.00;;;19.30;51.50;;;;;;4991540;28;20204;-56
2023/04/24 09:41:50;;;;;;;3.92;1.98;;;19.30;52.10;;;;;;4991851;28;20313;-54
2023/04/24 09:44:22;;;;;;;2.33;1.90;;;19.20;51.50;;;;;;4992118;28;20212;-56
2023/04/24 09:46:54;;;;;;;3.15;1.80;;;19.20;51.50;;;;;;4992190;28;20213;-57
2023/04/24 09:49:26;;;;;;;3.58;1.92;;;19.20;51.50;;;;;;5009437;28;20193;-57
2023/04/24 09:52:06;;;;;;;4.18;2.10;;;19.20;51.50;;;;;;5011677;28;20207;-57
2023/04/24 09:54:37;;;;;;;3.05;1.92;;;19.10;51.50;;;;;;5011972;28;20196;-53
2023/04/24 09:57:11;;;;;;;2.90;2.00;;;19.10;51.50;;;;;;5011798;28;20224;-56
2023/04/24 09:59:48;;;;;;;2.88;2.00;;;19.10;51.50;;;;;;5011798;28;20247;-58
2023/04/24 10:02:22;;;;;;;2.67;1.83;;;19.10;51.50;;;;;;5005240;28;20229;-57
2023/04/24 10:04:59;;;;;;;2.65;1.70;;;19.10;51.50;;;;;;4992288;28;20193;-57
2023/04/24 10:07:30;;;;;;;2.97;1.80;;;19.10;51.50;;;;;;4991876;28;20218;-57
2023/04/24 10:10:01;;;;;;;2.85;1.80;;;19.00;51.40;;;;;;4992241;28;20657;-56
2023/04/24 10:12:34;;;;;;;3.15;1.88;;;19.00;51.50;;;;;;4992340;28;20202;-57
2023/04/24 10:15:06;;;;;;;3.45;2.10;;;19.00;51.50;;;;;;4992059;28;20201;-58
2023/04/24 10:17:37;;;;;;;3.22;1.90;;;19.00;51.50;;;;;;4994017;28;20587;-57
2023/04/24 10:20:09;;;;;;;3.00;1.90;;;18.90;51.40;;;;;;4992008;28;20197;-57
2023/04/24 10:22:40;;;;;;;3.17;2.22;;;18.90;51.40;;;;;;4991690;28;20561;-58
2023/04/24 10:25:12;;;;;;;3.08;2.13;;;18.90;51.40;;;;;;4991873;28;20200;-55
2023/04/24 10:27:45;;;;;;;4.32;2.33;;;18.90;51.50;;;;;;4991558;28;20221;-57
2023/04/24 10:30:17;;;;;;;6.20;2.15;;;18.90;51.40;;;;;;4991382;28;20561;-54
2023/04/24 10:32:47;;;;;;;3.15;2.13;;;18.80;51.40;;;;;;4988434;28;20209;-56
2023/04/24 10:35:22;;;;;;;3.10;1.80;;;18.80;51.40;;;;;;4992015;28;20200;-58
2023/04/24 10:37:57;;;;;;;2.63;1.92;;;18.80;51.40;;;;;;4986791;28;20220;-57
2023/04/24 10:40:32;;;;;;;3.47;2.05;;;18.80;51.50;;;;;;4972023;28;20241;-57
2023/04/24 10:43:07;;;;;;;2.78;2.10;;;18.80;51.40;;;;;;4972271;28;20696;-57
2023/04/24 10:45:38;;;;;;;3.95;2.20;;;18.80;51.40;;;;;;4972032;28;20288;-57
2023/04/24 10:48:10;;;;;;;3.67;1.90;;;18.80;51.50;;;;;;4974579;28;20264;-48
2023/04/24 10:50:48;;;;;;;3.25;1.90;;;18.70;51.40;;;;;;4976455;28;20201;-53
2023/04/24 10:53:22;;;;;;;3.15;2.08;;;18.80;51.50;;;;;;4976036;28;20204;-59
2023/04/24 10:55:54;;;;;;;3.08;1.90;;;18.70;52.00;;;;;;4976312;28;20658;-56
2023/04/24 10:58:38;;;;;;;4.22;2.05;;;18.70;51.40;;;;;;4976177;28;20198;-59
2023/04/24 11:01:09;;;;;;;3.97;2.22;;;18.70;51.40;;;;;;4975902;28;20198;-54
2023/04/24 11:03:41;;;;;;;5.72;2.30;;;18.60;51.40;;;;;;4997623;28;20216;-57
2023/04/24 11:06:12;;;;;;;2.55;1.85;;;18.60;51.40;;;;;;5012140;28;20283;-58
2023/04/24 11:08:45;;;;;;;3.35;2.00;;;18.60;51.40;;;;;;5014913;28;20606;-56
2023/04/24 11:11:16;;;;;;;3.38;2.22;;;18.60;51.50;;;;;;5000916;28;20206;-56
2023/04/24 11:14:11;;;;;;;3.78;2.15;;;18.60;52.10;;;;;;4994735;28;20201;-55
2023/04/24 11:16:56;;;;;;;4.75;2.38;;;18.60;51.50;;;;;;4994706;28;20221;-57
2023/04/24 11:19:28;;;;;;;6.05;2.67;;;18.60;51.50;;;;;;4995260;28;20670;-57
2023/04/24 11:22:02;;;;;;;4.18;2.50;;;18.60;51.50;;;;;;4995230;28;20666;-58
2023/04/24 11:24:34;;;;;;;5.40;2.22;;;18.60;51.50;;;;;;4995158;28;20236;-57
2023/04/24 11:27:13;;;;;;;3.92;2.17;;;18.50;51.40;;;;;;4991215;28;20263;-55
2023/04/24 11:29:47;;;;;;;4.53;2.35;;;18.50;51.50;;;;;;5008065;28;20243;-57
2023/04/24 11:32:29;;;;;;;4.35;2.13;;;18.50;51.50;;;;;;5007033;28;20198;-57
2023/04/24 11:35:01;;;;;;;3.40;2.00;;;18.50;51.50;;;;;;4994471;28;20568;-57
2023/04/24 11:37:32;;;;;;;4.10;2.13;;;18.50;51.50;;;;;;4989912;28;20202;-56
2023/04/24 11:40:03;;;;;;;4.18;2.00;;;18.50;51.50;;;;;;4975069;28;20213;-58
2023/04/24 11:42:38;;;;;;;6.00;2.20;;;18.40;51.50;;;;;;4981208;28;20232;-57
2023/04/24 11:45:15;;;;;;;3.53;2.30;;;18.40;51.50;;;;;;4994484;28;20208;-56
2023/04/24 11:47:45;;;;;;;4.75;2.60;;;18.40;51.50;;;;;;5005345;28;20221;-52
2023/04/24 11:50:17;;;;;;;4.90;2.30;;;18.40;51.50;;;;;;4993448;28;20209;-55
2023/04/24 11:52:49;;;;;;;3.17;2.10;;;18.40;51.50;;;;;;4993572;28;20196;-56
2023/04/24 11:55:30;;;;;;;5.15;2.53;;;18.40;51.60;;;;;;4993670;28;20213;-56
2023/04/24 11:58:02;;;;;;;5.07;2.70;;;18.40;51.60;;;;;;4994099;28;20393;-57
2023/04/24 12:00:35;;;;;;;5.20;2.58;;;18.40;51.60;;;;;;4994227;28;20677;-57
2023/04/24 12:03:10;;;;;;;5.88;2.80;;;18.40;51.60;;;;;;4993670;28;20308;-56
2023/04/24 12:05:41;;;;;;;5.85;2.88;;;18.30;51.50;;;;;;4993430;28;20193;-57
2023/04/24 12:08:12;;;;;;;5.18;2.60;;;18.30;51.50;;;;;;4993003;28;20220;-57
2023/04/24 12:10:43;;;;;;;4.88;2.63;;;18.30;51.50;;;;;;4993045;28;20197;-56
2023/04/24 12:13:14;;;;;;;4.45;2.78;;;18.30;51.50;;;;;;4992671;28;20193;-57
2023/04/24 12:15:46;;;;;;;4.38;2.85;;;18.30;51.50;;;;;;4992366;28;20197;-57
2023/04/24 12:18:18;;;;;;;6.00;2.95;;;18.30;51.60;;;;;;4995495;28;20579;-57
2023/04/24 12:20:48;;;;;;;6.55;3.00;;;18.20;51.50;;;;;;4993764;28;20235;-57
2023/04/24 12:23:19;;;;;;;5.72;2.70;;;18.20;51.50;;;;;;4992191;28;20225;-58
2023/04/24 12:25:49;;;;;;;5.82;2.83;;;18.20;51.50;;;;;;4993177;28;20232;-57
2023/04/24 12:28:20;;;;;;;6.15;2.70;;;18.20;51.50;;;;;;4992881;28;20560;-58
2023/04/24 12:30:53;;;;;;;6.25;2.97;;;18.20;51.50;;;;;;4993494;28;20248;-56
2023/04/24 12:33:24;;;;;;;6.82;3.08;;;18.20;51.50;;;;;;4992008;28;20205;-56
2023/04/24 12:35:56;;;;;;;7.72;3.33;;;18.10;51.50;;;;;;4993922;28;20657;-56
2023/04/24 12:38:29;;;;;;;5.30;2.90;;;18.10;51.50;;;;;;4991249;28;20200;-57
2023/04/24 12:41:07;;;;;;;8.40;3.05;;;18.10;51.60;;;;;;4990388;28;20287;-56
2023/04/24 12:43:38;;;;;;;6.50;3.33;;;18.10;51.50;;;;;;4992694;28;20225;-56
2023/04/24 12:46:11;;;;;;;8.40;3.63;;;18.10;51.50;;;;;;4992717;28;20642;-55
2023/04/24 12:48:41;;;;;;;5.22;3.00;;;18.10;51.50;;;;;;4993428;28;20194;-55
2023/04/24 12:51:12;;;;;;;5.38;3.05;;;18.10;51.50;;;;;;4993094;28;20201;-56
2023/04/24 12:53:42;;;;;;;5.43;3.05;;;18.10;51.50;;;;;;4992008;28;20205;-56
2023/04/24 12:56:14;;;;;;;7.95;3.30;;;18.00;51.50;;;;;;4994422;28;20221;-55
2023/04/24 12:58:44;;;;;;;6.07;2.88;;;18.00;51.50;;;;;;4992827;28;20197;-56
2023/04/24 13:01:17;;;;;;;6.65;2.88;;;18.00;51.40;;;;;;4993036;28;20212;-56
2023/04/24 13:03:47;;;;;;;7.72;3.33;;;18.00;51.40;;;;;;4993301;28;20240;-54
2023/04/24 13:06:18;;;;;;;7.45;2.78;;;18.00;51.40;;;;;;4992828;28;20225;-58
2023/04/24 13:08:49;;;;;;;5.70;3.28;;;18.00;51.40;;;;;;4992724;28;20547;-57
2023/04/24 13:11:19;;;;;;;5.65;2.90;;;17.90;51.40;;;;;;4990748;28;20276;-59